Time;durP1;ratioP1;P1;durP2;ratioP2;P2;SDS_P1;SDS_P2;PMS_P1;PMS_P2;Temp;Humidity;BMP_temperature;BMP_pressure;BME280_temperature;BME280_humidity;BME280_pressure;Samples;Min_cycle;Max_cycle;Signal;HPM_P1;HPM_P2
2020/12/25 00:00:08;;;;;;;13.23;5.50;;;5.90;99.90;;;;;;5010832;28;20054;-76
2020/12/25 00:02:35;;;;;;;10.95;5.22;;;6.00;99.90;;;;;;5002806;28;20107;-75
2020/12/25 00:05:02;;;;;;;7.75;4.55;;;6.10;99.90;;;;;;5009564;28;20425;-75
2020/12/25 00:07:31;;;;;;;9.05;5.07;;;6.20;99.90;;;;;;5007417;28;20096;-75
2020/12/25 00:10:03;;;;;;;8.98;4.68;;;6.20;99.90;;;;;;4985064;28;20049;-74
2020/12/25 00:12:29;;;;;;;9.88;4.72;;;6.20;99.90;;;;;;5004122;28;21079;-75
2020/12/25 00:14:59;;;;;;;8.85;5.07;;;6.20;99.90;;;;;;5010447;28;20100;-75
2020/12/25 00:17:25;;;;;;;12.45;5.30;;;6.30;99.90;;;;;;4994960;28;20386;-75
2020/12/25 00:19:52;;;;;;;12.32;6.10;;;6.30;99.90;;;;;;5012255;28;20530;-75
2020/12/25 00:22:18;;;;;;;9.52;5.05;;;6.30;99.90;;;;;;4991868;28;20060;-75
2020/12/25 00:24:54;;;;;;;8.23;4.85;;;6.30;99.90;;;;;;4992042;28;20100;-76
2020/12/25 00:27:20;;;;;;;9.45;4.57;;;6.20;99.90;;;;;;5011960;28;20085;-75
2020/12/25 00:29:47;;;;;;;11.55;5.70;;;6.30;99.90;;;;;;5007543;28;20092;-75
2020/12/25 00:32:13;;;;;;;10.00;5.13;;;6.30;99.90;;;;;;4993515;28;20444;-75
2020/12/25 00:34:40;;;;;;;9.13;5.18;;;6.30;99.90;;;;;;5008108;28;20104;-74
2020/12/25 00:37:06;;;;;;;9.43;5.00;;;6.40;99.90;;;;;;4994751;28;20450;-75
2020/12/25 00:39:39;;;;;;;9.63;5.35;;;6.40;99.90;;;;;;5011109;28;20050;-74
2020/12/25 00:42:05;;;;;;;13.45;5.85;;;6.40;99.90;;;;;;5000891;28;20058;-74
2020/12/25 00:44:31;;;;;;;12.88;5.80;;;6.30;99.90;;;;;;5003031;28;20136;-75
2020/12/25 00:46:58;;;;;;;12.68;5.82;;;6.40;99.90;;;;;;5012159;28;20451;-74
2020/12/25 00:49:24;;;;;;;13.07;6.15;;;6.30;99.90;;;;;;5009044;28;20065;-74
2020/12/25 00:51:50;;;;;;;12.60;5.95;;;6.30;99.90;;;;;;4993529;28;20194;-76
2020/12/25 00:54:17;;;;;;;10.98;5.40;;;6.20;99.90;;;;;;4995466;28;20046;-76
2020/12/25 00:56:43;;;;;;;11.90;5.95;;;6.20;99.90;;;;;;5008091;28;20052;-75
2020/12/25 00:59:10;;;;;;;13.63;5.88;;;6.20;99.90;;;;;;5003703;28;20056;-75
2020/12/25 01:01:37;;;;;;;14.05;6.30;;;6.30;99.90;;;;;;5010922;28;20054;-75
2020/12/25 01:04:12;;;;;;;14.32;5.68;;;6.30;99.90;;;;;;5006888;28;20053;-75
2020/12/25 01:06:41;;;;;;;16.35;5.80;;;6.30;99.90;;;;;;5009428;28;20045;-75
2020/12/25 01:09:07;;;;;;;14.63;6.07;;;6.30;99.90;;;;;;5009854;28;20057;-74
2020/12/25 01:11:37;;;;;;;;;;;6.40;99.90;;;;;;5003862;28;20046;-75
2020/12/25 01:14:04;;;;;;;13.05;6.85;;;6.40;99.90;;;;;;5007222;28;19980;-76
2020/12/25 01:16:30;;;;;;;13.75;7.10;;;6.40;99.90;;;;;;4984864;28;20100;-75
2020/12/25 01:18:56;;;;;;;17.95;6.80;;;6.40;99.90;;;;;;5001861;28;20042;-76
2020/12/25 01:21:23;;;;;;;14.57;6.70;;;6.50;99.90;;;;;;5010876;28;20049;-75
2020/12/25 01:23:49;;;;;;;14.05;6.68;;;6.50;99.90;;;;;;5008220;28;20422;-75
2020/12/25 01:26:16;;;;;;;14.23;6.78;;;6.40;99.90;;;;;;4989468;28;20050;-75
2020/12/25 01:28:42;;;;;;;13.13;6.70;;;6.50;99.90;;;;;;4994760;28;20096;-75
2020/12/25 01:31:08;;;;;;;18.52;7.22;;;6.50;99.90;;;;;;5008743;28;20394;-75
2020/12/25 01:33:36;;;;;;;16.77;7.38;;;6.60;99.90;;;;;;4999469;28;20505;-76
2020/12/25 01:36:04;;;;;;;16.90;7.47;;;6.60;99.90;;;;;;4991937;28;20037;-74
2020/12/25 01:38:30;;;;;;;14.50;6.90;;;6.60;99.90;;;;;;5003939;28;20045;-74
2020/12/25 01:40:57;;;;;;;18.50;7.63;;;6.50;99.90;;;;;;4968480;28;20097;-75
2020/12/25 01:43:26;;;;;;;16.77;6.90;;;6.50;99.90;;;;;;5009411;28;20133;-76
2020/12/25 01:45:52;;;;;;;14.52;7.50;;;6.50;99.90;;;;;;5007901;28;20157;-75
2020/12/25 01:48:20;;;;;;;15.68;7.45;;;6.50;99.90;;;;;;5009048;28;20049;-75
2020/12/25 01:50:47;;;;;;;17.30;6.75;;;6.60;99.90;;;;;;4998890;28;20049;-75
2020/12/25 01:53:18;;;;;;;12.00;6.55;;;6.50;99.90;;;;;;5004530;28;20053;-75
2020/12/25 01:55:45;;;;;;;16.05;6.97;;;6.60;99.90;;;;;;5002720;28;20093;-76
2020/12/25 01:58:14;;;;;;;16.88;6.95;;;6.60;99.90;;;;;;5000263;28;20145;-75
2020/12/25 02:00:41;;;;;;;14.35;7.05;;;6.60;99.90;;;;;;5006185;28;20061;-75
2020/12/25 02:03:08;;;;;;;11.00;7.18;;;6.60;99.90;;;;;;4985563;28;20088;-75
2020/12/25 02:05:38;;;;;;;15.75;7.80;;;6.70;99.90;;;;;;5003481;28;20079;-75
2020/12/25 02:08:04;;;;;;;13.52;7.05;;;6.70;99.90;;;;;;4996182;28;20073;-75
2020/12/25 02:10:33;;;;;;;16.45;7.90;;;6.60;99.90;;;;;;5009414;28;20045;-75
2020/12/25 02:13:00;;;;;;;17.73;8.15;;;6.60;99.90;;;;;;4988863;28;20046;-76
2020/12/25 02:15:27;;;;;;;16.08;7.78;;;6.60;99.90;;;;;;4992764;28;20529;-75
2020/12/25 02:17:53;;;;;;;13.60;7.25;;;6.60;99.90;;;;;;4992586;28;20061;-76
2020/12/25 02:20:19;;;;;;;17.50;8.05;;;6.60;99.90;;;;;;5008546;28;20390;-76
2020/12/25 02:22:46;;;;;;;20.90;9.38;;;6.60;99.90;;;;;;4992235;28;20049;-75
2020/12/25 02:25:12;;;;;;;18.58;8.07;;;6.50;99.90;;;;;;5006104;28;20068;-75
2020/12/25 02:27:39;;;;;;;18.55;8.52;;;6.40;99.90;;;;;;4998668;28;20539;-75
2020/12/25 02:30:06;;;;;;;15.38;8.02;;;6.40;99.90;;;;;;5010808;28;20155;-75
2020/12/25 02:32:37;;;;;;;15.80;7.90;;;6.40;99.90;;;;;;5007217;28;20045;-75
2020/12/25 02:35:11;;;;;;;22.75;9.25;;;6.50;99.90;;;;;;4998980;28;20456;-75
2020/12/25 02:37:37;;;;;;;25.92;9.13;;;6.50;99.90;;;;;;5009785;28;20049;-75
2020/12/25 02:40:05;;;;;;;20.83;8.95;;;6.50;99.90;;;;;;5006421;28;20104;-75
2020/12/25 02:42:31;;;;;;;21.65;8.57;;;6.60;99.90;;;;;;5001924;28;20049;-75
2020/12/25 02:44:58;;;;;;;18.30;8.77;;;6.60;99.90;;;;;;5005130;28;20428;-75
2020/12/25 02:47:24;;;;;;;16.50;8.20;;;6.60;99.90;;;;;;5007506;28;20057;-74
2020/12/25 02:49:58;;;;;;;19.70;8.68;;;6.60;99.90;;;;;;4995513;28;20042;-74
2020/12/25 02:52:25;;;;;;;17.48;8.45;;;6.60;99.90;;;;;;5008573;28;20053;-75
2020/12/25 02:54:51;;;;;;;25.45;8.88;;;6.60;99.90;;;;;;5002518;28;20450;-74
2020/12/25 02:57:18;;;;;;;14.85;7.20;;;6.70;99.90;;;;;;5009765;28;20099;-75
2020/12/25 02:59:44;;;;;;;24.35;8.20;;;6.60;99.90;;;;;;5007001;28;20442;-76
2020/12/25 03:02:11;;;;;;;14.45;7.50;;;6.60;99.90;;;;;;4990789;28;20553;-76
2020/12/25 03:04:38;;;;;;;18.08;7.68;;;6.60;99.90;;;;;;5003811;28;20057;-75
2020/12/25 03:07:05;;;;;;;14.02;7.20;;;6.60;99.90;;;;;;5004230;28;20466;-75
2020/12/25 03:09:31;;;;;;;18.85;7.57;;;6.60;99.90;;;;;;5008978;28;20104;-75
2020/12/25 03:11:58;;;;;;;17.05;6.75;;;6.70;99.90;;;;;;5008475;28;20516;-75
2020/12/25 03:14:24;;;;;;;20.73;7.47;;;6.60;99.90;;;;;;5007668;28;20485;-75
2020/12/25 03:16:50;;;;;;;14.73;7.50;;;6.60;99.90;;;;;;4996999;28;20085;-75
2020/12/25 03:19:17;;;;;;;18.00;6.88;;;6.70;99.90;;;;;;5004335;28;20054;-74
2020/12/25 03:21:44;;;;;;;18.15;7.57;;;6.60;99.90;;;;;;4991185;28;20544;-75
2020/12/25 03:24:11;;;;;;;14.55;6.78;;;6.50;99.90;;;;;;4992776;28;20049;-75
2020/12/25 03:26:37;;;;;;;14.70;6.57;;;6.60;99.90;;;;;;5011311;28;20049;-74
2020/12/25 03:29:04;;;;;;;10.77;6.22;;;6.60;99.90;;;;;;4995135;28;20381;-75
2020/12/25 03:31:30;;;;;;;15.00;6.85;;;6.60;99.90;;;;;;4994410;28;20045;-74
2020/12/25 03:33:57;;;;;;;13.02;6.43;;;6.60;99.90;;;;;;5008218;28;20041;-75
2020/12/25 03:36:23;;;;;;;16.55;7.25;;;6.60;99.90;;;;;;4983627;28;20054;-75
2020/12/25 03:38:49;;;;;;;14.63;5.68;;;6.60;99.90;;;;;;4995131;28;20145;-75
2020/12/25 03:41:15;;;;;;;13.93;5.75;;;6.50;99.90;;;;;;5007414;28;20058;-75
2020/12/25 03:43:42;;;;;;;9.77;4.80;;;6.60;99.90;;;;;;5015090;28;20103;-74
2020/12/25 03:46:08;;;;;;;11.90;5.03;;;6.60;99.90;;;;;;4991181;28;20047;-75
2020/12/25 03:48:34;;;;;;;10.60;4.03;;;6.50;99.90;;;;;;5012338;28;20061;-74
2020/12/25 03:51:01;;;;;;;7.30;3.90;;;6.50;99.90;;;;;;4995739;28;20081;-75
2020/12/25 03:53:27;;;;;;;5.43;3.42;;;6.60;99.90;;;;;;5009596;28;20474;-76
2020/12/25 03:55:53;;;;;;;6.40;3.58;;;6.60;99.90;;;;;;4993645;28;20444;-75
2020/12/25 03:58:20;;;;;;;6.45;3.58;;;6.60;99.90;;;;;;5012529;28;20054;-75
2020/12/25 04:00:47;;;;;;;8.00;3.60;;;6.60;99.90;;;;;;5007070;28;20136;-75
2020/12/25 04:03:14;;;;;;;8.50;3.50;;;6.60;99.90;;;;;;4992755;28;20069;-74
2020/12/25 04:05:41;;;;;;;4.93;3.42;;;6.60;99.90;;;;;;5009102;28;20054;-75
2020/12/25 04:08:08;;;;;;;5.57;3.47;;;6.60;99.90;;;;;;4995745;28;20465;-74
2020/12/25 04:10:34;;;;;;;5.25;2.75;;;6.60;99.90;;;;;;5002575;28;20060;-74
2020/12/25 04:13:00;;;;;;;7.63;2.95;;;6.50;99.90;;;;;;5010294;28;20649;-74
2020/12/25 04:15:28;;;;;;;4.72;3.03;;;6.50;99.90;;;;;;5011171;28;20156;-74
2020/12/25 04:17:54;;;;;;;4.75;3.08;;;6.50;99.90;;;;;;5013243;28;20050;-74
2020/12/25 04:20:20;;;;;;;7.97;2.95;;;6.60;99.90;;;;;;5009568;28;20474;-74
2020/12/25 04:22:46;;;;;;;7.28;3.15;;;6.60;99.90;;;;;;5013980;28;20096;-74
2020/12/25 04:25:13;;;;;;;3.42;2.50;;;6.60;99.90;;;;;;4994362;28;20049;-74
2020/12/25 04:27:39;;;;;;;6.40;3.03;;;6.50;99.90;;;;;;5014227;28;20053;-74
2020/12/25 04:30:07;;;;;;;5.68;3.40;;;6.60;99.90;;;;;;5008873;28;20133;-74
2020/12/25 04:32:33;;;;;;;8.40;3.75;;;6.60;99.90;;;;;;5006212;28;20046;-73
2020/12/25 04:34:59;;;;;;;8.45;3.97;;;6.60;99.90;;;;;;5011017;28;20445;-74
2020/12/25 04:37:26;;;;;;;11.88;3.70;;;6.60;99.90;;;;;;5007472;28;20050;-74
2020/12/25 04:39:53;;;;;;;6.57;4.00;;;6.60;99.90;;;;;;5002572;28;20042;-74
2020/12/25 04:42:19;;;;;;;10.43;4.30;;;6.60;99.90;;;;;;4993057;28;20448;-74
2020/12/25 04:44:47;;;;;;;6.78;4.05;;;6.60;99.90;;;;;;5010457;28;20050;-74
2020/12/25 04:47:14;;;;;;;9.45;4.63;;;6.60;99.90;;;;;;5007897;28;20042;-74
2020/12/25 04:49:40;;;;;;;9.27;4.38;;;6.60;99.90;;;;;;5011647;28;20057;-75
2020/12/25 04:52:07;;;;;;;9.13;5.00;;;6.50;99.90;;;;;;4993231;28;20085;-75
2020/12/25 04:54:34;;;;;;;9.07;4.97;;;6.50;99.90;;;;;;5010626;28;20054;-76
2020/12/25 04:57:03;;;;;;;8.98;4.90;;;6.40;99.90;;;;;;5012322;28;20370;-75
2020/12/25 04:59:30;;;;;;;14.90;5.35;;;6.40;99.90;;;;;;4994988;28;20139;-75
2020/12/25 05:02:00;;;;;;;9.98;5.13;;;6.50;99.90;;;;;;4995512;28;20046;-75
2020/12/25 05:04:27;;;;;;;10.50;5.50;;;6.50;99.90;;;;;;4991953;28;20519;-75
2020/12/25 05:06:54;;;;;;;12.27;5.75;;;6.50;99.90;;;;;;5010624;28;20042;-75
2020/12/25 05:09:23;;;;;;;9.07;5.28;;;6.50;99.90;;;;;;5010685;28;20412;-75
2020/12/25 05:11:54;;;;;;;7.95;4.47;;;6.50;99.90;;;;;;5007880;28;20041;-75
2020/12/25 05:14:26;;;;;;;10.23;5.40;;;6.50;99.90;;;;;;5011313;28;20046;-75
2020/12/25 05:16:58;;;;;;;9.95;4.63;;;6.60;99.90;;;;;;4989436;28;20115;-75
2020/12/25 05:19:28;;;;;;;5.85;3.92;;;6.50;99.90;;;;;;5008714;28;20061;-75
2020/12/25 05:21:57;;;;;;;6.93;4.30;;;6.50;99.90;;;;;;5010433;28;20470;-75
2020/12/25 05:24:24;;;;;;;8.65;4.38;;;6.50;99.90;;;;;;4998563;28;20058;-74
2020/12/25 05:26:57;;;;;;;7.72;4.60;;;6.50;99.90;;;;;;5007680;28;20100;-74
2020/12/25 05:29:25;;;;;;;7.60;4.15;;;6.50;99.90;;;;;;5011503;28;20128;-75
2020/12/25 05:31:52;;;;;;;7.68;4.22;;;6.50;99.90;;;;;;5008367;28;20137;-74
2020/12/25 05:34:20;;;;;;;8.05;4.45;;;6.50;99.90;;;;;;5007551;28;20429;-75
2020/12/25 05:37:05;;;;;;;6.80;4.10;;;6.50;99.90;;;;;;5009514;28;20042;-74
2020/12/25 05:39:39;;;;;;;6.72;4.00;;;6.50;99.90;;;;;;4992986;28;20108;-76
2020/12/25 05:42:08;;;;;;;7.10;4.32;;;6.50;99.90;;;;;;4994665;28;20474;-75
2020/12/25 05:44:45;;;;;;;7.78;4.10;;;6.50;99.90;;;;;;4984575;28;20053;-75
2020/12/25 05:47:16;;;;;;;6.93;4.10;;;6.50;99.90;;;;;;5009690;28;20062;-75
2020/12/25 05:49:43;;;;;;;7.65;3.72;;;6.50;99.90;;;;;;5008554;28;20425;-75
2020/12/25 05:52:12;;;;;;;8.35;4.03;;;6.50;99.90;;;;;;4996673;28;20054;-74
2020/12/25 05:54:41;;;;;;;5.78;3.63;;;6.50;99.90;;;;;;5007271;28;20053;-74
2020/12/25 05:57:08;;;;;;;8.07;3.90;;;6.50;99.90;;;;;;5002608;28;20050;-75
2020/12/25 05:59:35;;;;;;;7.43;4.47;;;6.50;99.90;;;;;;5008447;28;20103;-75
2020/12/25 06:02:04;;;;;;;6.22;3.13;;;6.50;99.90;;;;;;5006410;28;20061;-75
2020/12/25 06:04:32;;;;;;;7.45;3.95;;;6.50;99.90;;;;;;5008556;28;20402;-75
2020/12/25 06:06:59;;;;;;;6.57;3.75;;;6.50;99.90;;;;;;4999191;28;20045;-75
2020/12/25 06:09:33;;;;;;;9.82;4.05;;;6.50;99.90;;;;;;4993395;28;20054;-74
2020/12/25 06:12:03;;;;;;;8.90;3.92;;;6.50;99.90;;;;;;4993454;28;20092;-75
2020/12/25 06:14:29;;;;;;;8.35;3.72;;;6.50;99.90;;;;;;5011457;28;20054;-74
2020/12/25 06:16:58;;;;;;;8.38;3.90;;;6.50;99.90;;;;;;4992446;28;20053;-74
2020/12/25 06:20:01;;;;;;;7.70;3.67;;;6.60;99.90;;;;;;4988617;28;20058;-74
2020/12/25 06:22:56;;;;;;;6.93;3.40;;;6.60;99.90;;;;;;4994801;28;20050;-74
2020/12/25 06:25:25;;;;;;;5.78;3.28;;;6.50;99.90;;;;;;4985086;28;20409;-75
2020/12/25 06:27:57;;;;;;;6.40;3.47;;;6.70;99.90;;;;;;5012429;28;20093;-75
2020/12/25 06:30:25;;;;;;;6.88;3.65;;;6.70;99.90;;;;;;4991415;28;20117;-74
2020/12/25 06:32:57;;;;;;;8.13;3.72;;;6.60;99.90;;;;;;5008809;28;20038;-74
2020/12/25 06:35:45;;;;;;;6.90;3.30;;;6.60;99.90;;;;;;4981192;28;20038;-75
2020/12/25 06:38:14;;;;;;;5.43;3.53;;;6.60;99.90;;;;;;5012605;28;20393;-75
2020/12/25 06:40:40;;;;;;;6.95;3.40;;;6.60;99.90;;;;;;4991573;28;20104;-75
2020/12/25 06:43:20;;;;;;;6.60;3.58;;;6.50;99.90;;;;;;5007706;28;20050;-75
2020/12/25 06:45:52;;;;;;;5.75;3.42;;;6.60;99.90;;;;;;5010950;28;20115;-75
2020/12/25 06:48:22;;;;;;;5.47;3.47;;;6.70;99.90;;;;;;5008917;28;20050;-75
2020/12/25 06:50:52;;;;;;;4.57;3.50;;;6.70;99.90;;;;;;4992319;28;20108;-75
2020/12/25 06:53:30;;;;;;;;;;;6.70;99.90;;;;;;5011739;28;20461;-75
2020/12/25 06:56:14;;;;;;;6.28;3.25;;;6.70;99.90;;;;;;5006742;28;20336;-75
2020/12/25 06:58:43;;;;;;;6.20;3.47;;;6.70;99.90;;;;;;5000581;28;20045;-75
2020/12/25 07:01:11;;;;;;;4.57;3.33;;;6.60;99.90;;;;;;4993626;28;20409;-75
2020/12/25 07:03:38;;;;;;;7.10;3.28;;;6.60;99.90;;;;;;5010537;28;20091;-75
2020/12/25 07:06:09;;;;;;;6.50;3.60;;;6.70;99.90;;;;;;5013317;28;20089;-75
2020/12/25 07:08:50;;;;;;;5.63;3.40;;;6.70;99.90;;;;;;5016116;28;20378;-74
2020/12/25 07:11:18;;;;;;;7.80;3.35;;;6.60;99.90;;;;;;4977443;28;20050;-74
2020/12/25 07:13:45;;;;;;;7.10;3.40;;;6.50;99.90;;;;;;5011490;28;20049;-75
2020/12/25 07:16:13;;;;;;;5.65;3.05;;;6.60;99.90;;;;;;5009724;28;20493;-75
2020/12/25 07:18:40;;;;;;;6.63;3.35;;;6.60;99.90;;;;;;5008444;28;20042;-75
2020/12/25 07:21:08;;;;;;;3.90;2.65;;;6.60;99.90;;;;;;4990832;28;20092;-75
2020/12/25 07:23:45;;;;;;;5.13;3.22;;;6.50;99.90;;;;;;4991266;28;20062;-75
2020/12/25 07:26:13;;;;;;;5.53;2.90;;;6.50;99.90;;;;;;5006240;28;20100;-75
2020/12/25 07:28:40;;;;;;;5.95;3.03;;;6.50;99.90;;;;;;5024479;28;20046;-76
2020/12/25 07:31:07;;;;;;;4.78;2.78;;;6.50;99.90;;;;;;4994744;28;20078;-74
2020/12/25 07:33:35;;;;;;;5.13;2.97;;;6.50;99.90;;;;;;5010426;28;20473;-75
2020/12/25 07:36:08;;;;;;;6.25;2.95;;;6.50;99.90;;;;;;5013624;28;20494;-75
2020/12/25 07:38:34;;;;;;;5.50;2.88;;;6.50;99.90;;;;;;5013886;28;20081;-75
2020/12/25 07:41:00;;;;;;;6.57;3.35;;;6.50;99.90;;;;;;4994851;28;20054;-76
2020/12/25 07:43:27;;;;;;;8.02;3.80;;;6.50;99.90;;;;;;5008761;28;20540;-75
2020/12/25 07:45:56;;;;;;;6.53;3.00;;;6.60;99.90;;;;;;4990310;28;20525;-75
2020/12/25 07:48:23;;;;;;;8.88;3.63;;;6.50;99.90;;;;;;4994924;28;20050;-74
2020/12/25 07:50:49;;;;;;;4.50;2.92;;;6.50;99.90;;;;;;5009294;28;20050;-74
2020/12/25 07:53:17;;;;;;;6.20;3.42;;;6.60;99.90;;;;;;5005149;28;20045;-75
2020/12/25 07:55:45;;;;;;;5.53;3.65;;;6.50;99.90;;;;;;5007282;28;20492;-75
2020/12/25 07:58:13;;;;;;;4.35;2.75;;;6.50;99.90;;;;;;4995222;28;20050;-75
2020/12/25 08:00:40;;;;;;;7.68;3.05;;;6.50;99.90;;;;;;5009633;28;20046;-75
2020/12/25 08:03:07;;;;;;;5.70;2.92;;;6.50;99.90;;;;;;5011729;28;20054;-73
2020/12/25 08:05:35;;;;;;;7.30;3.17;;;6.40;99.90;;;;;;5007178;28;20489;-75
2020/12/25 08:08:03;;;;;;;5.65;3.25;;;6.40;99.90;;;;;;4995863;28;20477;-75
2020/12/25 08:10:30;;;;;;;8.20;3.00;;;6.40;99.90;;;;;;5009952;28;20061;-76
2020/12/25 08:12:58;;;;;;;7.88;2.90;;;6.40;99.90;;;;;;5007682;28;20072;-74
2020/12/25 08:15:26;;;;;;;5.60;2.97;;;6.50;99.90;;;;;;5005827;28;20053;-75
2020/12/25 08:17:59;;;;;;;4.93;2.35;;;6.40;99.90;;;;;;4996812;28;20457;-74
2020/12/25 08:20:26;;;;;;;8.02;3.42;;;6.30;99.90;;;;;;4996404;28;20465;-75
2020/12/25 08:23:02;;;;;;;8.05;2.72;;;6.30;99.90;;;;;;5012617;28;20481;-75
2020/12/25 08:25:31;;;;;;;5.90;2.72;;;6.30;99.90;;;;;;5006222;28;20065;-75
2020/12/25 08:27:58;;;;;;;8.77;2.72;;;6.30;99.90;;;;;;4991926;28;20477;-75
2020/12/25 08:30:25;;;;;;;7.72;2.58;;;6.30;99.90;;;;;;5009249;28;20136;-75
2020/12/25 08:32:56;;;;;;;6.72;2.97;;;6.40;99.90;;;;;;5014415;28;20457;-75
2020/12/25 08:35:27;;;;;;;4.97;2.85;;;6.30;99.90;;;;;;5010832;28;20445;-75
2020/12/25 08:38:03;;;;;;;4.53;2.65;;;6.40;99.90;;;;;;5013933;28;20050;-76
2020/12/25 08:40:34;;;;;;;4.97;2.85;;;6.30;99.90;;;;;;4994774;28;20045;-75
2020/12/25 08:43:18;;;;;;;4.90;2.42;;;6.40;99.90;;;;;;5012329;28;20374;-76
2020/12/25 08:45:55;;;;;;;4.57;2.58;;;6.40;99.90;;;;;;4985412;28;20099;-76
2020/12/25 08:48:22;;;;;;;3.55;2.33;;;6.50;99.90;;;;;;4996306;28;20108;-75
2020/12/25 08:50:49;;;;;;;5.70;2.58;;;6.50;99.90;;;;;;5008983;28;20038;-75
2020/12/25 08:53:21;;;;;;;4.38;2.47;;;6.50;99.90;;;;;;5012788;28;20051;-75
2020/12/25 08:55:50;;;;;;;5.63;2.60;;;6.50;99.90;;;;;;4993368;28;20054;-76
2020/12/25 08:58:22;;;;;;;4.50;2.50;;;6.50;99.90;;;;;;4993231;28;20058;-76
2020/12/25 09:01:03;;;;;;;3.17;2.08;;;6.50;99.90;;;;;;4996122;28;20061;-76
2020/12/25 09:03:43;;;;;;;4.57;2.42;;;6.50;99.90;;;;;;4998311;28;20066;-75
2020/12/25 09:06:13;;;;;;;6.43;2.60;;;6.60;99.90;;;;;;5012137;28;20046;-75
2020/12/25 09:08:40;;;;;;;4.20;2.35;;;6.50;99.90;;;;;;4974005;28;20050;-75
2020/12/25 09:11:18;;;;;;;6.35;2.80;;;6.50;99.90;;;;;;4995282;28;20141;-75
2020/12/25 09:13:46;;;;;;;3.83;2.25;;;6.50;99.90;;;;;;5011192;28;20157;-75
2020/12/25 09:16:13;;;;;;;6.65;2.60;;;6.50;99.90;;;;;;5009578;28;20093;-75
2020/12/25 09:18:41;;;;;;;8.65;3.15;;;6.60;99.90;;;;;;5011801;28;20069;-75
2020/12/25 09:21:08;;;;;;;6.32;2.78;;;6.60;99.90;;;;;;5009615;28;20103;-75
2020/12/25 09:23:35;;;;;;;5.95;3.00;;;6.60;99.90;;;;;;5008282;28;20054;-75
2020/12/25 09:26:05;;;;;;;6.32;3.00;;;6.50;99.90;;;;;;4982977;28;20073;-76
2020/12/25 09:28:35;;;;;;;5.25;2.33;;;6.50;99.90;;;;;;5011446;28;20108;-75
2020/12/25 09:31:10;;;;;;;9.13;2.45;;;6.60;99.90;;;;;;4993548;28;20105;-76
2020/12/25 09:33:36;;;;;;;7.95;2.70;;;6.50;99.90;;;;;;5007360;28;20773;-76
2020/12/25 09:36:07;;;;;;;5.03;2.78;;;6.50;99.90;;;;;;5007856;28;20620;-76
2020/12/25 09:38:37;;;;;;;7.47;2.72;;;6.50;99.90;;;;;;4994010;28;20766;-75
2020/12/25 09:41:04;;;;;;;5.75;3.25;;;6.50;99.90;;;;;;5010035;28;20053;-75
2020/12/25 09:43:32;;;;;;;5.47;2.33;;;6.50;99.90;;;;;;5010355;28;20058;-75
2020/12/25 09:45:59;;;;;;;8.32;3.10;;;6.60;99.90;;;;;;5006089;28;20398;-76
2020/12/25 09:48:27;;;;;;;6.72;2.83;;;6.50;99.90;;;;;;5009146;28;20049;-76
2020/12/25 09:50:54;;;;;;;7.18;2.70;;;6.50;99.90;;;;;;5008383;28;20042;-75
2020/12/25 09:53:22;;;;;;;4.32;2.40;;;6.40;99.90;;;;;;5012921;28;20042;-74
2020/12/25 09:55:50;;;;;;;4.95;2.33;;;6.40;99.90;;;;;;4991393;28;20046;-76
2020/12/25 09:58:24;;;;;;;5.50;2.45;;;6.30;99.90;;;;;;4984006;28;20073;-75
2020/12/25 10:00:53;;;;;;;8.00;2.70;;;6.30;99.90;;;;;;4992942;28;20109;-76
2020/12/25 10:03:20;;;;;;;5.32;2.47;;;6.30;99.90;;;;;;5006873;28;20116;-75
2020/12/25 10:05:46;;;;;;;5.18;2.70;;;6.30;99.90;;;;;;5008939;28;20052;-76
2020/12/25 10:08:13;;;;;;;5.28;2.60;;;6.40;99.90;;;;;;5011680;28;20057;-76
2020/12/25 10:10:39;;;;;;;5.50;2.67;;;6.40;99.90;;;;;;4991080;28;20100;-75
2020/12/25 10:13:07;;;;;;;4.20;2.30;;;6.40;99.90;;;;;;5006609;28;20042;-75
2020/12/25 10:15:35;;;;;;;8.18;2.78;;;6.60;99.90;;;;;;5001044;28;20054;-76
2020/12/25 10:18:02;;;;;;;4.45;2.30;;;6.60;99.90;;;;;;4993249;28;20062;-74
2020/12/25 10:20:28;;;;;;;6.18;2.95;;;6.80;99.90;;;;;;4995463;28;20097;-75
2020/12/25 10:22:54;;;;;;;7.70;3.70;;;6.70;99.90;;;;;;5009444;28;20066;-75
2020/12/25 10:25:21;;;;;;;7.20;3.33;;;6.70;99.90;;;;;;4992512;28;20054;-75
2020/12/25 10:27:50;;;;;;;3.65;2.05;;;6.70;99.90;;;;;;4993897;28;20513;-75
2020/12/25 10:30:17;;;;;;;3.75;2.28;;;6.70;98.50;;;;;;5006831;28;20046;-74
2020/12/25 10:32:43;;;;;;;3.80;2.13;;;6.80;98.70;;;;;;4994239;28;20184;-74
2020/12/25 10:35:09;;;;;;;3.08;1.95;;;6.90;97.60;;;;;;4993527;28;20057;-75
2020/12/25 10:37:39;;;;;;;16.83;6.45;;;6.70;96.80;;;;;;4992706;28;20058;-76
2020/12/25 10:40:25;;;;;;;2.88;2.00;;;6.70;96.60;;;;;;4985811;28;20058;-75
2020/12/25 10:42:51;;;;;;;3.50;1.70;;;6.90;96.50;;;;;;5008115;28;20092;-75
2020/12/25 10:45:18;;;;;;;2.70;1.85;;;6.80;95.10;;;;;;5008709;28;20049;-76
2020/12/25 10:47:45;;;;;;;5.13;1.77;;;6.80;95.30;;;;;;5011155;28;20050;-75
2020/12/25 10:50:12;;;;;;;3.30;1.45;;;6.50;94.50;;;;;;4992406;28;20477;-75
2020/12/25 10:52:38;;;;;;;3.90;1.75;;;6.40;94.00;;;;;;5009449;28;20497;-75
2020/12/25 10:55:05;;;;;;;4.35;2.40;;;6.40;94.70;;;;;;5009046;28;20500;-74
2020/12/25 10:57:31;;;;;;;5.65;3.17;;;6.70;95.10;;;;;;5008004;28;20413;-75
2020/12/25 10:59:57;;;;;;;4.53;2.05;;;6.50;95.30;;;;;;5010722;28;20058;-75
2020/12/25 11:02:24;;;;;;;6.82;2.95;;;6.60;95.20;;;;;;4994713;28;20062;-74
2020/12/25 11:04:50;;;;;;;3.13;1.90;;;6.90;95.00;;;;;;5006249;28;20481;-74
2020/12/25 11:07:16;;;;;;;6.40;2.72;;;6.90;94.10;;;;;;4995772;28;20053;-75
2020/12/25 11:09:43;;;;;;;7.35;3.50;;;7.00;94.20;;;;;;5005783;28;20046;-75
2020/12/25 11:12:09;;;;;;;14.05;4.53;;;6.90;93.90;;;;;;5009901;28;20104;-74
2020/12/25 11:14:36;;;;;;;10.38;4.47;;;7.20;94.10;;;;;;5010517;28;20049;-75
2020/12/25 11:17:02;;;;;;;6.20;3.20;;;7.30;94.20;;;;;;4990108;28;20053;-74
2020/12/25 11:19:29;;;;;;;4.07;2.38;;;7.30;93.80;;;;;;5008435;28;20046;-75
2020/12/25 11:21:55;;;;;;;3.47;1.73;;;7.10;93.30;;;;;;5008875;28;20061;-76
2020/12/25 11:24:21;;;;;;;2.67;1.85;;;7.10;93.20;;;;;;4991665;28;20417;-74
2020/12/25 11:26:48;;;;;;;2.13;1.45;;;6.90;93.40;;;;;;5014561;28;20042;-74
2020/12/25 11:29:14;;;;;;;4.28;1.65;;;6.90;92.70;;;;;;5007150;28;20445;-76
2020/12/25 11:31:40;;;;;;;3.83;1.88;;;6.80;92.90;;;;;;5004516;28;20050;-75
2020/12/25 11:34:07;;;;;;;3.15;1.67;;;6.90;92.50;;;;;;5011549;28;20049;-76
2020/12/25 11:36:35;;;;;;;1.63;1.30;;;7.00;92.90;;;;;;5003512;28;20496;-74
2020/12/25 11:39:05;;;;;;;2.88;1.77;;;7.00;92.30;;;;;;5003280;28;20061;-76
2020/12/25 11:41:32;;;;;;;2.55;1.70;;;7.20;92.20;;;;;;4992883;28;20109;-77
2020/12/25 11:44:01;;;;;;;4.25;2.25;;;7.50;93.10;;;;;;4997652;28;20549;-75
2020/12/25 11:46:28;;;;;;;3.75;2.20;;;7.50;91.90;;;;;;5000068;28;20057;-74
2020/12/25 11:48:55;;;;;;;4.53;2.03;;;7.40;93.00;;;;;;4992090;28;20042;-74
2020/12/25 11:51:26;;;;;;;6.78;2.05;;;7.50;93.10;;;;;;5005649;28;20050;-73
2020/12/25 11:53:54;;;;;;;5.57;2.45;;;7.30;92.30;;;;;;4990171;28;20046;-76
2020/12/25 11:56:30;;;;;;;4.10;2.00;;;7.30;92.80;;;;;;4986839;28;20046;-74
2020/12/25 11:59:01;;;;;;;2.88;1.90;;;7.40;92.70;;;;;;4990175;28;20058;-75
2020/12/25 12:01:29;;;;;;;4.68;2.40;;;7.20;92.60;;;;;;4990925;28;20425;-73
2020/12/25 12:03:55;;;;;;;3.47;1.80;;;7.00;93.10;;;;;;4981618;28;20465;-78
2020/12/25 12:06:24;;;;;;;6.60;2.83;;;7.80;92.60;;;;;;4990092;28;20045;-77
2020/12/25 12:08:52;;;;;;;3.22;1.90;;;8.30;91.40;;;;;;4988812;28;20049;-78
2020/12/25 12:11:29;;;;;;;2.55;1.52;;;8.50;89.80;;;;;;4990290;28;20057;-78
2020/12/25 12:13:57;;;;;;;3.47;2.00;;;8.70;89.10;;;;;;4972993;28;20050;-78
2020/12/25 12:16:24;;;;;;;3.33;1.63;;;8.00;90.90;;;;;;4990274;28;20201;-78
2020/12/25 12:18:53;;;;;;;3.38;1.67;;;7.50;90.90;;;;;;4991458;28;20050;-77
2020/12/25 12:21:24;;;;;;;3.45;1.83;;;7.50;91.60;;;;;;4990034;28;20061;-77
2020/12/25 12:23:50;;;;;;;5.32;1.98;;;7.40;91.50;;;;;;4977702;28;20052;-75
2020/12/25 12:26:17;;;;;;;3.60;2.13;;;7.40;92.00;;;;;;4989964;28;20058;-78
2020/12/25 12:28:45;;;;;;;3.55;1.80;;;7.40;92.40;;;;;;4987877;28;20482;-79
2020/12/25 12:31:12;;;;;;;6.00;2.08;;;7.40;92.20;;;;;;4992624;28;20054;-80
2020/12/25 12:33:39;;;;;;;6.45;1.95;;;7.40;92.50;;;;;;4990203;28;20456;-80
2020/12/25 12:36:09;;;;;;;4.80;1.65;;;7.60;91.30;;;;;;4990157;28;20046;-79
2020/12/25 12:38:35;;;;;;;;;;;7.70;91.80;;;;;;4972127;28;20058;-80
2020/12/25 12:41:04;;;;;;;2.40;1.52;;;7.60;91.70;;;;;;4987361;28;19925;-76
2020/12/25 12:43:31;;;;;;;6.18;2.92;;;7.50;91.50;;;;;;4974124;28;20069;-80
2020/12/25 12:45:59;;;;;;;5.13;1.65;;;7.50;92.10;;;;;;4991973;28;20054;-80
2020/12/25 12:48:27;;;;;;;5.90;2.80;;;7.70;91.80;;;;;;4973492;28;20135;-77
2020/12/25 12:50:53;;;;;;;7.45;2.78;;;7.50;92.20;;;;;;4971976;28;20054;-77
2020/12/25 12:53:20;;;;;;;5.85;2.40;;;7.40;91.90;;;;;;4990570;28;20053;-76
2020/12/25 12:55:46;;;;;;;6.53;2.70;;;7.30;91.80;;;;;;4990363;28;20061;-77
2020/12/25 12:58:12;;;;;;;4.50;2.58;;;7.40;90.70;;;;;;4976753;28;20100;-77
2020/12/25 13:00:55;;;;;;;16.77;5.60;;;7.30;90.90;;;;;;4989264;28;20144;-77